sensor_id;sensor_type;location;lat;lon;timestamp;noise_LAeq;noise_LA_min;noise_LA_max;noise_LA01;noise_LA95
73822;Laerm;62152;52.078;8.414;2023-04-25T00:02:51;56.72;55.23;58.24;;
73822;Laerm;62152;52.078;8.414;2023-04-25T00:06:51;56.73;55.19;58.43;;
73822;Laerm;62152;52.078;8.414;2023-04-25T00:10:52;56.71;55.01;58.26;;
73822;Laerm;62152;52.078;8.414;2023-04-25T00:14:54;56.72;55.09;58.25;;
73822;Laerm;62152;52.078;8.414;2023-04-25T00:18:56;56.71;55.16;58.32;;
73822;Laerm;62152;52.078;8.414;2023-04-25T00:26:57;56.69;54.84;58.31;;
73822;Laerm;62152;52.078;8.414;2023-04-25T00:30:58;56.72;55.27;58.27;;
73822;Laerm;62152;52.078;8.414;2023-04-25T00:35:01;56.71;54.92;58.20;;
73822;Laerm;62152;52.078;8.414;2023-04-25T00:39:02;56.71;55.12;58.18;;
73822;Laerm;62152;52.078;8.414;2023-04-25T00:43:04;56.71;55.10;58.13;;
73822;Laerm;62152;52.078;8.414;2023-04-25T00:47:05;56.71;55.01;58.22;;
73822;Laerm;62152;52.078;8.414;2023-04-25T00:51:18;56.93;55.06;63.49;;
73822;Laerm;62152;52.078;8.414;2023-04-25T00:55:20;56.73;55.17;58.18;;
73822;Laerm;62152;52.078;8.414;2023-04-25T00:59:21;56.72;54.74;58.26;;
73822;Laerm;62152;52.078;8.414;2023-04-25T01:03:22;56.72;55.14;58.48;;
73822;Laerm;62152;52.078;8.414;2023-04-25T01:07:24;56.71;54.99;58.24;;
73822;Laerm;62152;52.078;8.414;2023-04-25T01:11:26;56.72;55.10;58.36;;
73822;Laerm;62152;52.078;8.414;2023-04-25T01:15:28;56.72;55.05;58.15;;
73822;Laerm;62152;52.078;8.414;2023-04-25T01:19:29;56.72;55.00;58.22;;
73822;Laerm;62152;52.078;8.414;2023-04-25T01:23:32;56.72;55.00;58.22;;
73822;Laerm;62152;52.078;8.414;2023-04-25T01:27:33;56.72;55.12;58.32;;
73822;Laerm;62152;52.078;8.414;2023-04-25T01:31:36;56.72;55.20;58.31;;
73822;Laerm;62152;52.078;8.414;2023-04-25T01:35:37;56.71;55.15;58.26;;
73822;Laerm;62152;52.078;8.414;2023-04-25T01:39:40;56.72;55.09;58.29;;
73822;Laerm;62152;52.078;8.414;2023-04-25T01:43:41;56.72;55.07;58.22;;
73822;Laerm;62152;52.078;8.414;2023-04-25T01:47:42;56.71;55.14;58.16;;
73822;Laerm;62152;52.078;8.414;2023-04-25T01:51:44;56.71;55.12;58.26;;
73822;Laerm;62152;52.078;8.414;2023-04-25T01:55:46;56.71;55.04;58.22;;
73822;Laerm;62152;52.078;8.414;2023-04-25T01:59:50;56.72;54.97;58.56;;
73822;Laerm;62152;52.078;8.414;2023-04-25T02:04:09;56.73;55.05;58.26;;
73822;Laerm;62152;52.078;8.414;2023-04-25T02:08:13;56.71;55.02;58.18;;
73822;Laerm;62152;52.078;8.414;2023-04-25T02:12:16;56.73;55.14;58.34;;
73822;Laerm;62152;52.078;8.414;2023-04-25T02:16:36;56.71;55.23;58.26;;
73822;Laerm;62152;52.078;8.414;2023-04-25T02:20:37;56.73;55.02;58.20;;
73822;Laerm;62152;52.078;8.414;2023-04-25T02:24:38;56.72;55.12;58.19;;
73822;Laerm;62152;52.078;8.414;2023-04-25T02:28:40;56.72;55.15;58.30;;
73822;Laerm;62152;52.078;8.414;2023-04-25T02:32:41;56.72;55.04;58.29;;
73822;Laerm;62152;52.078;8.414;2023-04-25T02:36:43;56.72;55.13;58.49;;
73822;Laerm;62152;52.078;8.414;2023-04-25T02:40:44;56.72;55.03;58.33;;
73822;Laerm;62152;52.078;8.414;2023-04-25T02:44:46;56.72;55.22;58.19;;
73822;Laerm;62152;52.078;8.414;2023-04-25T02:48:47;56.71;55.06;58.21;;
73822;Laerm;62152;52.078;8.414;2023-04-25T02:52:48;56.94;55.15;63.58;;
73822;Laerm;62152;52.078;8.414;2023-04-25T02:56:53;56.71;55.08;58.18;;
73822;Laerm;62152;52.078;8.414;2023-04-25T03:01:01;56.71;55.01;58.39;;
73822;Laerm;62152;52.078;8.414;2023-04-25T03:05:02;56.71;54.98;58.20;;
73822;Laerm;62152;52.078;8.414;2023-04-25T03:09:04;56.71;55.13;58.20;;
73822;Laerm;62152;52.078;8.414;2023-04-25T03:13:05;56.71;55.08;58.33;;
73822;Laerm;62152;52.078;8.414;2023-04-25T03:17:07;56.74;55.15;58.30;;
73822;Laerm;62152;52.078;8.414;2023-04-25T03:21:09;56.74;55.06;65.74;;
73822;Laerm;62152;52.078;8.414;2023-04-25T03:25:10;56.74;55.06;65.74;;
73822;Laerm;62152;52.078;8.414;2023-04-25T03:29:11;56.72;55.08;61.74;;
73822;Laerm;62152;52.078;8.414;2023-04-25T03:33:15;56.72;55.09;58.19;;
73822;Laerm;62152;52.078;8.414;2023-04-25T03:37:16;56.71;55.06;58.15;;
73822;Laerm;62152;52.078;8.414;2023-04-25T03:41:17;56.73;55.16;58.27;;
73822;Laerm;62152;52.078;8.414;2023-04-25T03:45:22;56.73;54.88;62.21;;
73822;Laerm;62152;52.078;8.414;2023-04-25T03:49:24;56.72;54.92;58.14;;
73822;Laerm;62152;52.078;8.414;2023-04-25T03:53:34;56.72;55.04;61.72;;
73822;Laerm;62152;52.078;8.414;2023-04-25T03:57:54;58.44;55.13;84.55;;
73822;Laerm;62152;52.078;8.414;2023-04-25T04:01:55;60.49;55.04;80.25;;
73822;Laerm;62152;52.078;8.414;2023-04-25T04:05:58;60.32;55.33;86.58;;
73822;Laerm;62152;52.078;8.414;2023-04-25T04:09:59;60.76;53.39;90.94;;
73822;Laerm;62152;52.078;8.414;2023-04-25T04:14:06;59.43;55.29;88.18;;
73822;Laerm;62152;52.078;8.414;2023-04-25T04:18:07;57.01;55.18;69.35;;
73822;Laerm;62152;52.078;8.414;2023-04-25T04:22:09;56.80;55.23;71.37;;
73822;Laerm;62152;52.078;8.414;2023-04-25T04:26:11;56.70;54.96;58.13;;
73822;Laerm;62152;52.078;8.414;2023-04-25T04:30:22;56.71;55.16;58.32;;
73822;Laerm;62152;52.078;8.414;2023-04-25T04:34:31;56.71;55.05;58.30;;
73822;Laerm;62152;52.078;8.414;2023-04-25T04:38:34;56.72;54.97;58.36;;
73822;Laerm;62152;52.078;8.414;2023-04-25T04:42:37;56.72;55.29;58.25;;
73822;Laerm;62152;52.078;8.414;2023-04-25T04:46:56;56.72;55.26;58.05;;
73822;Laerm;62152;52.078;8.414;2023-04-25T04:51:16;56.94;55.16;64.15;;
73822;Laerm;62152;52.078;8.414;2023-04-25T04:55:32;56.94;55.16;64.15;;
73822;Laerm;62152;52.078;8.414;2023-04-25T04:59:59;56.71;55.21;58.10;;
73822;Laerm;62152;52.078;8.414;2023-04-25T05:04:29;56.72;55.07;58.25;;
73822;Laerm;62152;52.078;8.414;2023-04-25T05:09:00;56.72;55.05;58.30;;
73822;Laerm;62152;52.078;8.414;2023-04-25T05:13:14;56.72;55.08;58.30;;
73822;Laerm;62152;52.078;8.414;2023-04-25T05:17:42;56.71;55.07;58.23;;
73822;Laerm;62152;52.078;8.414;2023-04-25T05:22:02;56.72;55.08;58.20;;
73822;Laerm;62152;52.078;8.414;2023-04-25T05:26:12;56.72;55.13;58.27;;
73822;Laerm;62152;52.078;8.414;2023-04-25T05:30:26;56.72;55.17;58.15;;
73822;Laerm;62152;52.078;8.414;2023-04-25T05:34:37;56.72;55.19;58.19;;
73822;Laerm;62152;52.078;8.414;2023-04-25T05:38:41;56.72;55.14;58.18;;
73822;Laerm;62152;52.078;8.414;2023-04-25T05:42:48;56.72;55.00;58.26;;
73822;Laerm;62152;52.078;8.414;2023-04-25T05:47:02;56.72;55.18;58.11;;
73822;Laerm;62152;52.078;8.414;2023-04-25T05:51:26;56.72;55.11;58.08;;
73822;Laerm;62152;52.078;8.414;2023-04-25T05:55:40;56.72;55.29;57.97;;
73822;Laerm;62152;52.078;8.414;2023-04-25T05:59:56;56.73;55.24;58.10;;
73822;Laerm;62152;52.078;8.414;2023-04-25T06:04:05;56.72;55.20;58.07;;
73822;Laerm;62152;52.078;8.414;2023-04-25T06:08:07;56.72;55.22;58.23;;
73822;Laerm;62152;52.078;8.414;2023-04-25T06:12:08;56.73;55.06;58.11;;
73822;Laerm;62152;52.078;8.414;2023-04-25T06:16:09;56.72;55.17;58.16;;
73822;Laerm;62152;52.078;8.414;2023-04-25T06:20:12;56.72;55.23;58.29;;
73822;Laerm;62152;52.078;8.414;2023-04-25T06:24:14;56.74;55.13;58.15;;
73822;Laerm;62152;52.078;8.414;2023-04-25T06:28:15;56.72;55.13;58.15;;
73822;Laerm;62152;52.078;8.414;2023-04-25T06:32:17;56.72;54.95;58.38;;
73822;Laerm;62152;52.078;8.414;2023-04-25T06:36:19;56.73;55.03;58.16;;
73822;Laerm;62152;52.078;8.414;2023-04-25T06:40:23;56.71;55.20;58.22;;
73822;Laerm;62152;52.078;8.414;2023-04-25T06:44:24;56.72;55.23;58.28;;
73822;Laerm;62152;52.078;8.414;2023-04-25T06:48:27;56.72;55.03;58.22;;
73822;Laerm;62152;52.078;8.414;2023-04-25T06:52:30;56.96;55.20;63.69;;
73822;Laerm;62152;52.078;8.414;2023-04-25T06:56:31;56.71;55.24;58.10;;
73822;Laerm;62152;52.078;8.414;2023-04-25T07:00:38;56.72;55.08;58.26;;
73822;Laerm;62152;52.078;8.414;2023-04-25T07:04:39;56.72;54.95;58.15;;
73822;Laerm;62152;52.078;8.414;2023-04-25T07:08:41;56.72;55.40;58.15;;
73822;Laerm;62152;52.078;8.414;2023-04-25T07:12:42;56.73;55.29;58.28;;
73822;Laerm;62152;52.078;8.414;2023-04-25T07:16:43;56.72;55.08;58.29;;
73822;Laerm;62152;52.078;8.414;2023-04-25T07:20:45;56.72;55.13;58.37;;
73822;Laerm;62152;52.078;8.414;2023-04-25T07:24:48;56.71;55.17;58.19;;
73822;Laerm;62152;52.078;8.414;2023-04-25T07:28:49;56.73;54.93;58.14;;
73822;Laerm;62152;52.078;8.414;2023-04-25T07:32:50;56.72;55.28;58.17;;
73822;Laerm;62152;52.078;8.414;2023-04-25T07:36:51;56.72;55.10;60.49;;
73822;Laerm;62152;52.078;8.414;2023-04-25T07:40:54;56.73;54.90;58.13;;
73822;Laerm;62152;52.078;8.414;2023-04-25T07:44:56;56.71;55.25;58.30;;
73822;Laerm;62152;52.078;8.414;2023-04-25T07:48:57;56.73;54.53;58.23;;
73822;Laerm;62152;52.078;8.414;2023-04-25T07:52:58;56.73;55.19;58.36;;
73822;Laerm;62152;52.078;8.414;2023-04-25T07:57:09;56.72;55.09;58.15;;
73822;Laerm;62152;52.078;8.414;2023-04-25T08:01:11;56.75;55.24;72.62;;
73822;Laerm;62152;52.078;8.414;2023-04-25T08:05:23;56.73;55.27;58.04;;
73822;Laerm;62152;52.078;8.414;2023-04-25T08:09:32;56.72;55.28;58.14;;
73822;Laerm;62152;52.078;8.414;2023-04-25T08:13:35;56.72;54.91;58.09;;
73822;Laerm;62152;52.078;8.414;2023-04-25T08:21:37;56.71;54.31;58.26;;
73822;Laerm;62152;52.078;8.414;2023-04-25T08:25:41;56.72;54.97;58.38;;
73822;Laerm;62152;52.078;8.414;2023-04-25T08:29:46;56.73;55.03;58.30;;
73822;Laerm;62152;52.078;8.414;2023-04-25T08:33:48;56.74;55.01;58.29;;
73822;Laerm;62152;52.078;8.414;2023-04-25T08:38:07;56.73;54.99;58.14;;
73822;Laerm;62152;52.078;8.414;2023-04-25T08:42:08;56.72;54.93;58.24;;
73822;Laerm;62152;52.078;8.414;2023-04-25T08:46:12;56.72;54.95;58.23;;
73822;Laerm;62152;52.078;8.414;2023-04-25T08:54:38;0.00;0.00;0.00;;
73822;Laerm;62152;52.078;8.414;2023-04-25T08:58:43;56.73;55.18;59.59;;
73822;Laerm;62152;52.078;8.414;2023-04-25T09:02:47;56.73;55.26;58.03;;
73822;Laerm;62152;52.078;8.414;2023-04-25T09:06:48;56.73;55.29;58.23;;
73822;Laerm;62152;52.078;8.414;2023-04-25T09:10:49;57.17;55.38;62.89;;
73822;Laerm;62152;52.078;8.414;2023-04-25T09:15:06;56.81;55.26;63.71;;
73822;Laerm;62152;52.078;8.414;2023-04-25T09:19:32;56.73;55.16;58.98;;
73822;Laerm;62152;52.078;8.414;2023-04-25T09:23:40;56.95;55.18;59.79;;
73822;Laerm;62152;52.078;8.414;2023-04-25T09:27:50;57.05;54.93;62.84;;
73822;Laerm;62152;52.078;8.414;2023-04-25T09:36:13;56.99;55.16;60.49;;
73822;Laerm;62152;52.078;8.414;2023-04-25T09:48:53;0.00;0.00;0.00;;
73822;Laerm;62152;52.078;8.414;2023-04-25T09:53:04;56.81;55.27;59.36;;
73822;Laerm;62152;52.078;8.414;2023-04-25T09:57:18;56.72;55.29;58.60;;
73822;Laerm;62152;52.078;8.414;2023-04-25T10:01:23;56.90;55.06;61.57;;
73822;Laerm;62152;52.078;8.414;2023-04-25T10:05:38;56.71;55.27;58.13;;
73822;Laerm;62152;52.078;8.414;2023-04-25T10:09:41;56.73;55.39;58.19;;
73822;Laerm;62152;52.078;8.414;2023-04-25T10:13:45;56.74;55.26;59.77;;
73822;Laerm;62152;52.078;8.414;2023-04-25T10:17:47;56.73;55.31;59.05;;
73822;Laerm;62152;52.078;8.414;2023-04-25T10:21:55;56.71;55.37;57.99;;
73822;Laerm;62152;52.078;8.414;2023-04-25T10:26:00;56.73;55.14;58.42;;
73822;Laerm;62152;52.078;8.414;2023-04-25T10:30:02;56.73;55.25;58.09;;
73822;Laerm;62152;52.078;8.414;2023-04-25T10:38:10;56.72;55.17;63.22;;
73822;Laerm;62152;52.078;8.414;2023-04-25T10:42:12;56.72;55.25;58.14;;
73822;Laerm;62152;52.078;8.414;2023-04-25T10:46:16;56.72;55.17;58.16;;
73822;Laerm;62152;52.078;8.414;2023-04-25T10:50:18;56.72;55.17;58.23;;
73822;Laerm;62152;52.078;8.414;2023-04-25T10:54:18;56.98;55.08;63.06;;
73822;Laerm;62152;52.078;8.414;2023-04-25T10:58:22;56.73;55.25;58.16;;
73822;Laerm;62152;52.078;8.414;2023-04-25T11:02:26;56.73;55.15;58.13;;
73822;Laerm;62152;52.078;8.414;2023-04-25T11:10:41;56.71;54.97;58.03;;
73822;Laerm;62152;52.078;8.414;2023-04-25T11:14:43;56.73;55.26;58.20;;
73822;Laerm;62152;52.078;8.414;2023-04-25T11:22:46;56.71;55.21;58.08;;
73822;Laerm;62152;52.078;8.414;2023-04-25T11:26:47;56.72;55.38;58.20;;
73822;Laerm;62152;52.078;8.414;2023-04-25T11:30:49;56.73;55.12;61.66;;
73822;Laerm;62152;52.078;8.414;2023-04-25T11:34:52;56.72;55.18;58.16;;
73822;Laerm;62152;52.078;8.414;2023-04-25T11:38:54;56.72;55.18;59.89;;
73822;Laerm;62152;52.078;8.414;2023-04-25T11:42:55;56.73;55.09;58.13;;
73822;Laerm;62152;52.078;8.414;2023-04-25T11:46:57;56.72;54.92;59.19;;
73822;Laerm;62152;52.078;8.414;2023-04-25T11:51:00;56.73;55.15;58.48;;
73822;Laerm;62152;52.078;8.414;2023-04-25T11:55:01;56.72;55.21;58.19;;
73822;Laerm;62152;52.078;8.414;2023-04-25T11:59:04;56.71;55.21;58.07;;
73822;Laerm;62152;52.078;8.414;2023-04-25T12:03:09;56.73;55.05;58.26;;
73822;Laerm;62152;52.078;8.414;2023-04-25T12:07:10;56.73;55.05;58.26;;
73822;Laerm;62152;52.078;8.414;2023-04-25T12:11:21;56.72;55.20;58.16;;
73822;Laerm;62152;52.078;8.414;2023-04-25T12:15:25;56.71;55.14;58.25;;
73822;Laerm;62152;52.078;8.414;2023-04-25T12:19:33;56.73;55.22;58.11;;
73822;Laerm;62152;52.078;8.414;2023-04-25T12:23:34;56.72;55.07;58.19;;
73822;Laerm;62152;52.078;8.414;2023-04-25T12:27:39;56.72;55.39;58.21;;
73822;Laerm;62152;52.078;8.414;2023-04-25T12:31:40;56.72;55.34;58.10;;
73822;Laerm;62152;52.078;8.414;2023-04-25T12:35:42;56.72;55.34;58.10;;
73822;Laerm;62152;52.078;8.414;2023-04-25T12:43:44;56.71;55.15;58.39;;
73822;Laerm;62152;52.078;8.414;2023-04-25T12:47:45;56.73;55.13;58.16;;
73822;Laerm;62152;52.078;8.414;2023-04-25T12:51:47;56.96;55.21;63.57;;
73822;Laerm;62152;52.078;8.414;2023-04-25T12:55:48;56.73;55.22;58.24;;
73822;Laerm;62152;52.078;8.414;2023-04-25T12:59:49;56.72;55.07;58.26;;
73822;Laerm;62152;52.078;8.414;2023-04-25T13:03:50;56.75;55.21;69.64;;
73822;Laerm;62152;52.078;8.414;2023-04-25T13:07:52;56.73;55.25;64.42;;
73822;Laerm;62152;52.078;8.414;2023-04-25T13:11:53;56.72;55.27;58.31;;
73822;Laerm;62152;52.078;8.414;2023-04-25T13:15:54;56.72;55.23;58.16;;
73822;Laerm;62152;52.078;8.414;2023-04-25T13:19:55;56.72;55.24;58.22;;
73822;Laerm;62152;52.078;8.414;2023-04-25T13:23:57;56.72;55.02;58.08;;
73822;Laerm;62152;52.078;8.414;2023-04-25T13:27:58;56.73;55.26;58.06;;
73822;Laerm;62152;52.078;8.414;2023-04-25T13:31:59;56.72;55.19;58.00;;
73822;Laerm;62152;52.078;8.414;2023-04-25T13:36:01;56.73;55.23;58.28;;
73822;Laerm;62152;52.078;8.414;2023-04-25T13:40:07;56.73;55.20;58.31;;
73822;Laerm;62152;52.078;8.414;2023-04-25T13:48:08;56.71;54.73;58.19;;
73822;Laerm;62152;52.078;8.414;2023-04-25T13:52:09;56.73;55.12;58.30;;
73822;Laerm;62152;52.078;8.414;2023-04-25T13:56:12;56.72;55.02;58.24;;
73822;Laerm;62152;52.078;8.414;2023-04-25T14:00:14;56.72;55.20;58.16;;
73822;Laerm;62152;52.078;8.414;2023-04-25T14:04:15;56.73;55.09;58.16;;
73822;Laerm;62152;52.078;8.414;2023-04-25T14:08:15;56.74;55.12;58.16;;
73822;Laerm;62152;52.078;8.414;2023-04-25T14:16:19;56.71;54.80;58.15;;
73822;Laerm;62152;52.078;8.414;2023-04-25T14:20:20;56.73;55.10;58.24;;
73822;Laerm;62152;52.078;8.414;2023-04-25T14:24:21;56.72;55.35;60.28;;
73822;Laerm;62152;52.078;8.414;2023-04-25T14:32:24;56.72;54.92;57.99;;
73822;Laerm;62152;52.078;8.414;2023-04-25T14:36:26;56.73;55.50;58.49;;
73822;Laerm;62152;52.078;8.414;2023-04-25T14:40:28;56.76;55.32;67.36;;
73822;Laerm;62152;52.078;8.414;2023-04-25T14:44:30;58.31;55.31;80.60;;
73822;Laerm;62152;52.078;8.414;2023-04-25T14:48:31;61.51;55.21;87.22;;
73822;Laerm;62152;52.078;8.414;2023-04-25T14:52:32;59.67;55.41;84.05;;
73822;Laerm;62152;52.078;8.414;2023-04-25T14:56:33;57.39;55.24;69.66;;
73822;Laerm;62152;52.078;8.414;2023-04-25T15:00:35;57.04;55.22;64.77;;
73822;Laerm;62152;52.078;8.414;2023-04-25T15:04:37;57.18;55.39;65.28;;
73822;Laerm;62152;52.078;8.414;2023-04-25T15:08:37;56.97;55.29;67.98;;
73822;Laerm;62152;52.078;8.414;2023-04-25T15:12:39;57.11;55.23;69.83;;
73822;Laerm;62152;52.078;8.414;2023-04-25T15:16:41;57.17;55.26;65.76;;
73822;Laerm;62152;52.078;8.414;2023-04-25T15:20:42;56.88;54.95;64.72;;
73822;Laerm;62152;52.078;8.414;2023-04-25T15:24:43;57.04;55.25;66.84;;
73822;Laerm;62152;52.078;8.414;2023-04-25T15:28:43;56.81;55.18;65.81;;
73822;Laerm;62152;52.078;8.414;2023-04-25T15:32:47;56.79;55.15;64.00;;
73822;Laerm;62152;52.078;8.414;2023-04-25T15:36:47;56.70;55.24;58.19;;
73822;Laerm;62152;52.078;8.414;2023-04-25T15:40:48;56.80;55.42;65.71;;
73822;Laerm;62152;52.078;8.414;2023-04-25T15:44:49;56.76;55.42;63.43;;
73822;Laerm;62152;52.078;8.414;2023-04-25T15:48:51;58.09;55.15;82.63;;
73822;Laerm;62152;52.078;8.414;2023-04-25T15:52:53;58.93;55.27;82.59;;
73822;Laerm;62152;52.078;8.414;2023-04-25T15:56:53;68.56;55.43;91.30;;
73822;Laerm;62152;52.078;8.414;2023-04-25T16:00:54;65.42;56.02;90.49;;
73822;Laerm;62152;52.078;8.414;2023-04-25T16:08:58;68.51;55.80;90.63;;
73822;Laerm;62152;52.078;8.414;2023-04-25T16:12:59;66.92;55.42;91.39;;
73822;Laerm;62152;52.078;8.414;2023-04-25T16:17:00;62.92;55.29;87.88;;
73822;Laerm;62152;52.078;8.414;2023-04-25T16:21:02;60.94;55.24;83.54;;
73822;Laerm;62152;52.078;8.414;2023-04-25T16:25:05;57.57;55.28;76.87;;
73822;Laerm;62152;52.078;8.414;2023-04-25T16:29:06;57.87;55.43;78.75;;
73822;Laerm;62152;52.078;8.414;2023-04-25T16:33:07;61.99;55.30;87.44;;
73822;Laerm;62152;52.078;8.414;2023-04-25T16:37:10;57.63;55.22;84.31;;
73822;Laerm;62152;52.078;8.414;2023-04-25T16:41:11;56.81;55.20;67.84;;
73822;Laerm;62152;52.078;8.414;2023-04-25T16:45:12;57.69;55.45;82.24;;
73822;Laerm;62152;52.078;8.414;2023-04-25T16:49:13;56.82;55.25;66.03;;
73822;Laerm;62152;52.078;8.414;2023-04-25T16:53:15;65.27;55.04;97.01;;
73822;Laerm;62152;52.078;8.414;2023-04-25T16:57:16;59.50;55.50;88.58;;
73822;Laerm;62152;52.078;8.414;2023-04-25T17:01:17;59.33;55.41;89.65;;
73822;Laerm;62152;52.078;8.414;2023-04-25T17:05:18;57.21;55.31;78.12;;
73822;Laerm;62152;52.078;8.414;2023-04-25T17:09:20;59.75;48.51;87.47;;
73822;Laerm;62152;52.078;8.414;2023-04-25T17:13:21;56.89;55.22;70.07;;
73822;Laerm;62152;52.078;8.414;2023-04-25T17:21:23;64.09;55.43;93.74;;
73822;Laerm;62152;52.078;8.414;2023-04-25T17:25:25;57.93;55.08;82.76;;
73822;Laerm;62152;52.078;8.414;2023-04-25T17:29:26;58.31;55.25;85.84;;
73822;Laerm;62152;52.078;8.414;2023-04-25T17:33:27;65.16;55.57;92.81;;
73822;Laerm;62152;52.078;8.414;2023-04-25T17:37:28;65.40;55.52;99.91;;
73822;Laerm;62152;52.078;8.414;2023-04-25T17:41:30;60.62;55.60;90.35;;
73822;Laerm;62152;52.078;8.414;2023-04-25T17:45:31;58.51;55.58;86.63;;
73822;Laerm;62152;52.078;8.414;2023-04-25T17:49:32;57.26;55.18;71.02;;
73822;Laerm;62152;52.078;8.414;2023-04-25T17:53:34;57.13;55.24;72.52;;
73822;Laerm;62152;52.078;8.414;2023-04-25T17:57:36;57.04;55.24;65.81;;
73822;Laerm;62152;52.078;8.414;2023-04-25T18:01:37;60.93;55.27;82.46;;
73822;Laerm;62152;52.078;8.414;2023-04-25T18:05:38;60.69;55.49;82.19;;
73822;Laerm;62152;52.078;8.414;2023-04-25T18:09:39;57.35;55.00;70.44;;
73822;Laerm;62152;52.078;8.414;2023-04-25T18:13:41;57.47;55.50;73.85;;
73822;Laerm;62152;52.078;8.414;2023-04-25T18:17:42;57.71;55.34;70.66;;
73822;Laerm;62152;52.078;8.414;2023-04-25T18:21:44;58.31;55.25;85.09;;
73822;Laerm;62152;52.078;8.414;2023-04-25T18:25:45;57.75;55.36;79.85;;
73822;Laerm;62152;52.078;8.414;2023-04-25T18:29:47;56.94;55.46;71.22;;
73822;Laerm;62152;52.078;8.414;2023-04-25T18:33:48;58.76;55.16;78.89;;
73822;Laerm;62152;52.078;8.414;2023-04-25T18:37:49;58.66;55.55;80.75;;
73822;Laerm;62152;52.078;8.414;2023-04-25T18:41:50;57.60;55.11;82.50;;
73822;Laerm;62152;52.078;8.414;2023-04-25T18:45:52;62.19;55.20;92.93;;
73822;Laerm;62152;52.078;8.414;2023-04-25T18:49:53;57.13;55.15;71.31;;
73822;Laerm;62152;52.078;8.414;2023-04-25T18:53:54;59.00;55.23;84.40;;
73822;Laerm;62152;52.078;8.414;2023-04-25T18:57:55;57.20;55.45;78.46;;
73822;Laerm;62152;52.078;8.414;2023-04-25T19:01:57;56.99;55.37;72.34;;
73822;Laerm;62152;52.078;8.414;2023-04-25T19:06:00;57.68;55.19;81.37;;
73822;Laerm;62152;52.078;8.414;2023-04-25T19:10:02;57.20;55.36;70.21;;
73822;Laerm;62152;52.078;8.414;2023-04-25T19:14:03;57.00;55.40;69.11;;
73822;Laerm;62152;52.078;8.414;2023-04-25T19:18:05;57.23;55.31;74.92;;
73822;Laerm;62152;52.078;8.414;2023-04-25T19:22:06;57.24;55.31;79.44;;
73822;Laerm;62152;52.078;8.414;2023-04-25T19:26:07;56.97;55.28;71.04;;
73822;Laerm;62152;52.078;8.414;2023-04-25T19:30:09;56.99;55.48;73.20;;
73822;Laerm;62152;52.078;8.414;2023-04-25T19:34:12;57.19;55.55;78.12;;
73822;Laerm;62152;52.078;8.414;2023-04-25T19:38:12;61.73;55.50;85.19;;
73822;Laerm;62152;52.078;8.414;2023-04-25T19:42:13;57.53;55.33;80.80;;
73822;Laerm;62152;52.078;8.414;2023-04-25T19:46:14;57.50;55.36;82.95;;
73822;Laerm;62152;52.078;8.414;2023-04-25T19:50:16;57.41;55.38;79.09;;
73822;Laerm;62152;52.078;8.414;2023-04-25T19:54:17;57.65;55.29;75.39;;
73822;Laerm;62152;52.078;8.414;2023-04-25T19:58:18;56.86;55.29;65.77;;
73822;Laerm;62152;52.078;8.414;2023-04-25T20:02:19;62.25;55.26;79.36;;
73822;Laerm;62152;52.078;8.414;2023-04-25T20:06:21;56.87;55.23;69.55;;
73822;Laerm;62152;52.078;8.414;2023-04-25T20:10:22;57.27;55.03;76.43;;
73822;Laerm;62152;52.078;8.414;2023-04-25T20:14:23;56.98;55.17;68.66;;
73822;Laerm;62152;52.078;8.414;2023-04-25T20:18:24;56.86;55.26;67.12;;
73822;Laerm;62152;52.078;8.414;2023-04-25T20:22:26;56.78;55.39;62.57;;
73822;Laerm;62152;52.078;8.414;2023-04-25T20:26:27;56.88;55.26;66.27;;
73822;Laerm;62152;52.078;8.414;2023-04-25T20:30:28;57.01;55.31;73.23;;
73822;Laerm;62152;52.078;8.414;2023-04-25T20:34:29;58.78;55.03;88.22;;
73822;Laerm;62152;52.078;8.414;2023-04-25T20:38:31;56.75;55.13;59.68;;
73822;Laerm;62152;52.078;8.414;2023-04-25T20:42:32;56.74;55.39;58.45;;
73822;Laerm;62152;52.078;8.414;2023-04-25T20:46:34;56.74;55.39;58.19;;
73822;Laerm;62152;52.078;8.414;2023-04-25T20:50:34;56.74;55.35;58.04;;
73822;Laerm;62152;52.078;8.414;2023-04-25T20:54:37;57.13;55.41;65.48;;
73822;Laerm;62152;52.078;8.414;2023-04-25T20:58:38;56.74;55.30;58.09;;
73822;Laerm;62152;52.078;8.414;2023-04-25T21:02:38;56.74;55.34;58.02;;
73822;Laerm;62152;52.078;8.414;2023-04-25T21:06:39;56.73;55.21;58.07;;
73822;Laerm;62152;52.078;8.414;2023-04-25T21:10:41;56.73;55.42;58.12;;
73822;Laerm;62152;52.078;8.414;2023-04-25T21:14:42;56.74;55.23;58.20;;
73822;Laerm;62152;52.078;8.414;2023-04-25T21:18:43;56.74;55.30;60.53;;
73822;Laerm;62152;52.078;8.414;2023-04-25T21:22:45;56.73;55.13;57.96;;
73822;Laerm;62152;52.078;8.414;2023-04-25T21:26:47;56.72;55.38;58.01;;
73822;Laerm;62152;52.078;8.414;2023-04-25T21:30:48;56.73;55.20;58.05;;
73822;Laerm;62152;52.078;8.414;2023-04-25T21:42:52;56.70;54.66;58.32;;
73822;Laerm;62152;52.078;8.414;2023-04-25T21:46:53;56.72;55.05;58.15;;
73822;Laerm;62152;52.078;8.414;2023-04-25T21:50:54;56.71;54.94;58.21;;
73822;Laerm;62152;52.078;8.414;2023-04-25T21:54:55;56.72;54.87;58.17;;
73822;Laerm;62152;52.078;8.414;2023-04-25T21:58:57;56.72;55.01;58.28;;
73822;Laerm;62152;52.078;8.414;2023-04-25T22:02:58;56.71;55.16;58.22;;
73822;Laerm;62152;52.078;8.414;2023-04-25T22:06:59;56.72;55.05;58.17;;
73822;Laerm;62152;52.078;8.414;2023-04-25T22:11:00;56.72;55.06;58.16;;
73822;Laerm;62152;52.078;8.414;2023-04-25T22:15:02;56.70;55.02;58.19;;
73822;Laerm;62152;52.078;8.414;2023-04-25T22:19:03;56.71;54.97;58.15;;
73822;Laerm;62152;52.078;8.414;2023-04-25T22:27:05;56.70;55.24;58.05;;
73822;Laerm;62152;52.078;8.414;2023-04-25T22:35:09;56.69;55.06;58.25;;
73822;Laerm;62152;52.078;8.414;2023-04-25T22:39:10;56.71;55.10;58.14;;
73822;Laerm;62152;52.078;8.414;2023-04-25T22:43:11;56.70;55.08;58.15;;
73822;Laerm;62152;52.078;8.414;2023-04-25T22:47:13;56.71;55.26;58.04;;
73822;Laerm;62152;52.078;8.414;2023-04-25T22:51:14;57.09;54.88;65.33;;
73822;Laerm;62152;52.078;8.414;2023-04-25T22:55:15;56.71;55.06;58.22;;
73822;Laerm;62152;52.078;8.414;2023-04-25T22:59:16;56.70;54.99;58.21;;
73822;Laerm;62152;52.078;8.414;2023-04-25T23:03:18;56.71;55.06;58.17;;
73822;Laerm;62152;52.078;8.414;2023-04-25T23:07:20;56.70;54.95;58.09;;
73822;Laerm;62152;52.078;8.414;2023-04-25T23:11:21;56.70;55.06;58.05;;
73822;Laerm;62152;52.078;8.414;2023-04-25T23:15:24;56.69;55.10;58.09;;
73822;Laerm;62152;52.078;8.414;2023-04-25T23:19:26;56.72;55.17;58.27;;
73822;Laerm;62152;52.078;8.414;2023-04-25T23:23:27;56.70;55.07;58.17;;
73822;Laerm;62152;52.078;8.414;2023-04-25T23:27:28;56.70;55.13;58.12;;
73822;Laerm;62152;52.078;8.414;2023-04-25T23:31:29;56.71;55.01;58.15;;
73822;Laerm;62152;52.078;8.414;2023-04-25T23:35:34;56.70;55.00;58.15;;
73822;Laerm;62152;52.078;8.414;2023-04-25T23:39:35;56.70;55.05;58.14;;
73822;Laerm;62152;52.078;8.414;2023-04-25T23:47:36;56.68;54.70;58.22;;
73822;Laerm;62152;52.078;8.414;2023-04-25T23:55:39;56.68;55.07;61.56;;
73822;Laerm;62152;52.078;8.414;2023-04-25T23:59:40;56.72;55.05;58.19;;
